createdAt,value
2023-04-02T00:00:20.008Z,2.30
2023-04-02T00:03:01.944Z,1.83
2023-04-02T00:05:54.990Z,1.92
2023-04-02T00:08:31.078Z,1.98
2023-04-02T00:11:00.916Z,3.03
2023-04-02T00:13:35.636Z,2.03
2023-04-02T00:16:06.580Z,2.08
2023-04-02T00:18:43.753Z,2.42
2023-04-02T00:21:15.727Z,1.88
2023-04-02T00:23:44.940Z,1.90
2023-04-02T00:26:24.706Z,2.72
2023-04-02T00:28:54.102Z,2.17
2023-04-02T00:31:23.426Z,1.90
2023-04-02T00:33:54.508Z,2.35
2023-04-02T00:36:26.664Z,1.50
2023-04-02T00:39:00.236Z,2.45
2023-04-02T00:41:31.808Z,1.67
2023-04-02T00:44:01.426Z,2.28
2023-04-02T00:46:34.729Z,1.92
2023-04-02T00:49:10.682Z,1.88
2023-04-02T00:51:42.911Z,2.20
2023-04-02T00:54:15.888Z,1.98
2023-04-02T00:56:47.377Z,1.63
2023-04-02T00:59:23.727Z,1.55
2023-04-02T01:01:55.322Z,1.75
2023-04-02T01:04:34.583Z,1.75
2023-04-02T01:07:09.203Z,1.77
2023-04-02T01:10:06.916Z,1.92
2023-04-02T01:12:47.326Z,2.35
2023-04-02T01:15:20.928Z,2.05
2023-04-02T01:18:02.393Z,1.90
2023-04-02T01:21:04.393Z,2.20
2023-04-02T01:23:39.938Z,1.77
2023-04-02T01:26:15.784Z,2.25
2023-04-02T01:28:59.780Z,2.45
2023-04-02T01:31:29.353Z,2.53
2023-04-02T01:33:58.610Z,2.67
2023-04-02T01:36:34.436Z,2.50
2023-04-02T01:39:12.698Z,2.65
2023-04-02T01:41:46.288Z,2.55
2023-04-02T01:44:19.884Z,2.92
2023-04-02T01:46:50.702Z,2.38
2023-04-02T01:49:22.700Z,2.22
2023-04-02T01:51:56.398Z,2.90
2023-04-02T01:54:30.849Z,2.92
2023-04-02T01:57:01.624Z,3.47
2023-04-02T01:59:33.414Z,3.05
2023-04-02T02:02:06.576Z,2.83
2023-04-02T02:04:38.560Z,2.90
2023-04-02T02:07:15.876Z,2.45
2023-04-02T02:09:49.408Z,3.50
2023-04-02T02:12:17.780Z,3.10
2023-04-02T02:14:52.381Z,2.78
2023-04-02T02:17:29.507Z,2.55
2023-04-02T02:20:02.073Z,2.83
2023-04-02T02:22:32.793Z,2.40
2023-04-02T02:25:05.467Z,2.50
2023-04-02T02:27:49.016Z,1.95
2023-04-02T02:30:23.520Z,3.22
2023-04-02T02:32:58.283Z,2.30
2023-04-02T02:35:30.378Z,2.85
2023-04-02T02:38:07.568Z,3.38
2023-04-02T02:40:45.117Z,2.83
2023-04-02T02:43:16.649Z,2.22
2023-04-02T02:45:49.122Z,2.05
2023-04-02T02:48:21.168Z,2.47
2023-04-02T02:50:51.105Z,2.97
2023-04-02T02:53:24.014Z,3.08
2023-04-02T02:55:59.877Z,2.50
2023-04-02T02:58:35.119Z,3.15
2023-04-02T03:01:17.041Z,2.78
2023-04-02T03:03:47.434Z,2.25
2023-04-02T03:06:21.111Z,3.22
2023-04-02T03:09:02.389Z,3.03
2023-04-02T03:11:38.641Z,3.25
2023-04-02T03:14:19.388Z,3.03
2023-04-02T03:16:54.993Z,2.88
2023-04-02T03:22:06.507Z,3.00
2023-04-02T03:24:46.677Z,2.53
2023-04-02T03:27:19.487Z,3.17
2023-04-02T03:30:02.970Z,3.53
2023-04-02T03:32:39.248Z,3.53
2023-04-02T03:35:19.108Z,4.28
2023-04-02T03:37:52.753Z,4.20
2023-04-02T03:40:26.554Z,4.05
2023-04-02T03:43:01.139Z,3.20
2023-04-02T03:45:34.075Z,3.17
2023-04-02T03:48:10.729Z,4.55
2023-04-02T03:50:45.296Z,3.50
2023-04-02T03:53:14.132Z,5.50
2023-04-02T03:55:43.667Z,3.78
2023-04-02T03:58:19.058Z,3.60
2023-04-02T04:00:54.316Z,4.32
2023-04-02T04:03:30.450Z,4.33
2023-04-02T04:06:02.132Z,3.65
2023-04-02T04:08:38.111Z,4.10
2023-04-02T04:11:14.515Z,3.65
2023-04-02T04:13:48.164Z,3.47
2023-04-02T04:16:21.896Z,3.78
2023-04-02T04:19:01.799Z,3.60
2023-04-02T04:21:37.776Z,3.63
2023-04-02T04:24:21.889Z,3.28
2023-04-02T04:26:56.699Z,3.35
2023-04-02T04:29:40.763Z,3.60
2023-04-02T04:32:19.004Z,4.00
2023-04-02T04:34:53.605Z,3.28
2023-04-02T04:37:35.680Z,3.55
2023-04-02T04:40:13.500Z,3.97
2023-04-02T04:42:44.186Z,3.60
2023-04-02T04:45:28.426Z,3.58
2023-04-02T04:48:02.241Z,3.03
2023-04-02T04:50:38.250Z,2.57
2023-04-02T04:53:08.757Z,3.65
2023-04-02T04:55:40.536Z,3.53
2023-04-02T04:58:20.342Z,2.10
2023-04-02T05:00:57.799Z,2.38
2023-04-02T05:03:33.866Z,3.50
2023-04-02T05:06:11.129Z,2.47
2023-04-02T05:08:46.460Z,2.97
2023-04-02T05:11:22.156Z,2.60
2023-04-02T05:13:55.299Z,3.47
2023-04-02T05:16:29.940Z,3.30
2023-04-02T05:19:06.086Z,2.95
2023-04-02T05:21:43.910Z,3.35
2023-04-02T05:24:41.789Z,2.97
2023-04-02T05:27:20.264Z,2.55
2023-04-02T05:29:54.357Z,2.45
2023-04-02T05:32:28.304Z,2.83
2023-04-02T05:34:58.205Z,2.40
2023-04-02T05:37:31.432Z,2.90
2023-04-02T05:40:13.542Z,1.85
2023-04-02T05:42:49.810Z,2.67
2023-04-02T05:45:27.738Z,2.08
2023-04-02T05:48:01.933Z,2.30
2023-04-02T05:50:40.119Z,2.42
2023-04-02T05:53:21.004Z,1.98
2023-04-02T05:55:55.852Z,1.92
2023-04-02T05:58:36.548Z,2.10
2023-04-02T06:01:37.678Z,1.83
2023-04-02T06:04:20.397Z,2.15
2023-04-02T06:06:53.672Z,2.28
2023-04-02T06:09:34.719Z,1.60
2023-04-02T06:12:14.173Z,1.90
2023-04-02T06:14:42.958Z,2.42
2023-04-02T06:17:16.292Z,2.08
2023-04-02T06:19:45.812Z,2.00
2023-04-02T06:22:23.171Z,2.20
2023-04-02T06:25:02.744Z,1.63
2023-04-02T06:27:36.618Z,1.73
2023-04-02T06:30:18.154Z,1.42
2023-04-02T06:32:49.886Z,1.33
2023-04-02T06:35:19.562Z,1.55
2023-04-02T06:37:59.558Z,1.38
2023-04-02T06:40:41.275Z,1.50
2023-04-02T06:43:28.920Z,1.70
2023-04-02T06:46:17.788Z,1.92
2023-04-02T06:49:06.049Z,1.45
2023-04-02T06:51:37.034Z,1.45
2023-04-02T06:54:06.394Z,1.20
2023-04-02T06:56:44.239Z,0.93
2023-04-02T06:59:16.650Z,1.40
2023-04-02T07:01:49.284Z,1.33
2023-04-02T07:04:19.400Z,1.13
2023-04-02T07:06:49.314Z,1.25
2023-04-02T07:09:19.093Z,1.35
2023-04-02T07:11:52.590Z,1.50
2023-04-02T07:14:21.922Z,1.40
2023-04-02T07:16:50.328Z,1.38
2023-04-02T07:19:21.977Z,1.23
2023-04-02T07:21:54.822Z,1.13
2023-04-02T07:24:24.636Z,0.80
2023-04-02T07:26:54.221Z,1.15
2023-04-02T07:29:22.888Z,0.88
2023-04-02T07:31:52.977Z,1.40
2023-04-02T07:34:21.482Z,1.38
2023-04-02T07:36:50.232Z,1.35
2023-04-02T07:39:18.949Z,1.38
2023-04-02T07:41:55.647Z,1.00
2023-04-02T07:44:24.426Z,1.35
2023-04-02T07:46:52.709Z,0.90
2023-04-02T07:49:21.478Z,1.30
2023-04-02T07:51:50.306Z,1.33
2023-04-02T07:54:18.903Z,1.15
2023-04-02T07:56:47.599Z,0.60
2023-04-02T07:59:17.577Z,1.35
2023-04-02T08:01:46.285Z,0.82
2023-04-02T08:04:19.929Z,1.10
2023-04-02T08:06:49.415Z,0.50
2023-04-02T08:09:18.693Z,1.23
2023-04-02T08:11:47.084Z,0.75
2023-04-02T08:14:17.120Z,0.80
2023-04-02T08:16:47.534Z,0.75
2023-04-02T08:19:16.624Z,1.02
2023-04-02T08:21:45.035Z,0.45
2023-04-02T08:24:13.668Z,0.95
2023-04-02T08:26:43.890Z,0.60
2023-04-02T08:29:13.581Z,0.80
2023-04-02T08:31:43.393Z,1.13
2023-04-02T08:34:12.331Z,0.63
2023-04-02T08:36:43.286Z,0.68
2023-04-02T08:39:12.208Z,1.00
2023-04-02T08:41:47.227Z,1.15
2023-04-02T08:44:46.831Z,1.15
2023-04-02T08:47:20.780Z,0.70
2023-04-02T08:49:56.100Z,1.13
2023-04-02T08:52:27.472Z,1.40
2023-04-02T08:54:58.176Z,1.33
2023-04-02T08:57:37.622Z,0.77
2023-04-02T09:00:10.790Z,1.13
2023-04-02T09:02:46.446Z,1.58
2023-04-02T09:05:21.494Z,1.15
2023-04-02T09:07:52.539Z,1.40
2023-04-02T09:10:21.459Z,0.80
2023-04-02T09:12:53.381Z,1.15
2023-04-02T09:15:29.452Z,0.90
2023-04-02T09:18:03.634Z,0.88
2023-04-02T09:20:31.917Z,1.33
2023-04-02T09:23:01.585Z,1.00
2023-04-02T09:25:32.238Z,1.42
2023-04-02T09:28:03.978Z,0.90
2023-04-02T09:30:44.846Z,1.08
2023-04-02T09:33:17.181Z,0.75
2023-04-02T09:35:56.363Z,1.08
2023-04-02T09:38:31.842Z,1.00
2023-04-02T09:43:32.176Z,0.90
2023-04-02T09:46:03.087Z,1.13
2023-04-02T09:48:35.858Z,0.70
2023-04-02T09:51:16.366Z,1.15
2023-04-02T09:53:47.286Z,0.90
2023-04-02T09:56:18.568Z,0.88
2023-04-02T09:59:02.907Z,1.40
2023-04-02T10:01:33.884Z,1.35
2023-04-02T10:04:08.263Z,1.38
2023-04-02T10:06:36.827Z,1.65
2023-04-02T10:09:27.622Z,1.35
2023-04-02T10:11:56.885Z,1.10
2023-04-02T10:14:30.095Z,1.38
2023-04-02T10:17:02.378Z,0.80
2023-04-02T10:19:36.167Z,1.35
2023-04-02T10:22:08.081Z,1.33
2023-04-02T10:24:36.619Z,1.20
2023-04-02T10:27:17.666Z,1.08
2023-04-02T10:30:02.953Z,1.02
2023-04-02T10:32:37.823Z,1.17
2023-04-02T10:35:16.586Z,1.02
2023-04-02T10:38:07.184Z,1.55
2023-04-02T10:40:37.754Z,1.33
2023-04-02T10:43:36.510Z,1.15
2023-04-02T10:46:11.728Z,1.30
2023-04-02T10:48:48.063Z,0.93
2023-04-02T10:51:30.120Z,1.20
2023-04-02T10:54:03.955Z,0.95
2023-04-02T10:56:44.205Z,1.05
2023-04-02T10:59:22.358Z,0.65
2023-04-02T11:01:52.372Z,0.82
2023-04-02T11:04:25.022Z,1.23
2023-04-02T11:07:07.573Z,0.70
2023-04-02T11:09:44.557Z,0.60
2023-04-02T11:12:23.176Z,0.70
2023-04-02T11:14:53.652Z,1.08
2023-04-02T11:17:22.399Z,0.98
2023-04-02T11:19:50.721Z,0.75
2023-04-02T11:22:22.587Z,1.08
2023-04-02T11:24:53.737Z,1.10
2023-04-02T11:27:28.183Z,0.80
2023-04-02T11:30:06.692Z,0.90
2023-04-02T11:32:39.341Z,1.92
2023-04-02T11:35:31.970Z,0.60
2023-04-02T11:38:43.586Z,0.50
2023-04-02T11:41:12.126Z,1.02
2023-04-02T11:43:52.472Z,1.10
2023-04-02T11:46:46.506Z,0.73
2023-04-02T11:49:39.701Z,0.75
2023-04-02T11:52:24.212Z,0.73
2023-04-02T11:55:17.255Z,1.00
2023-04-02T11:58:20.520Z,0.55
2023-04-02T12:01:15.227Z,0.75
2023-04-02T12:04:04.781Z,0.68
2023-04-02T12:06:47.481Z,1.15
2023-04-02T12:09:22.487Z,0.93
2023-04-02T12:11:55.339Z,0.50
2023-04-02T12:14:48.462Z,0.40
2023-04-02T12:17:29.700Z,0.30
2023-04-02T12:20:03.159Z,1.13
2023-04-02T12:22:33.808Z,0.67
2023-04-02T12:25:05.380Z,0.77
2023-04-02T12:27:38.360Z,0.80
2023-04-02T12:30:16.114Z,0.45
2023-04-02T12:32:44.555Z,0.90
2023-04-02T12:35:30.540Z,0.45
2023-04-02T12:37:59.068Z,0.90
2023-04-02T12:40:29.071Z,0.85
2023-04-02T12:42:58.750Z,0.50
2023-04-02T12:45:30.082Z,0.70
2023-04-02T12:47:59.413Z,0.60
2023-04-02T12:50:28.274Z,1.00
2023-04-02T12:52:59.005Z,1.52
2023-04-02T12:55:29.446Z,0.82
2023-04-02T12:58:00.683Z,0.80
2023-04-02T13:00:36.993Z,0.95
2023-04-02T13:03:20.679Z,0.88
2023-04-02T13:05:53.156Z,0.75
2023-04-02T13:08:25.244Z,0.85
2023-04-02T13:10:56.655Z,0.77
2023-04-02T13:13:31.186Z,1.42
2023-04-02T13:16:05.494Z,0.68
2023-04-02T13:18:36.670Z,1.30
2023-04-02T13:21:07.124Z,1.08
2023-04-02T13:23:37.806Z,0.80
2023-04-02T13:26:17.298Z,1.15
2023-04-02T13:29:00.834Z,1.10
2023-04-02T13:31:30.030Z,0.93
2023-04-02T13:33:59.099Z,0.80
2023-04-02T13:36:29.530Z,0.98
2023-04-02T13:38:58.383Z,0.82
2023-04-02T13:41:28.563Z,1.48
2023-04-02T13:44:01.463Z,1.08
2023-04-02T13:46:32.231Z,1.10
2023-04-02T13:49:01.417Z,0.85
2023-04-02T13:51:37.251Z,1.17
2023-04-02T13:54:10.789Z,0.82
2023-04-02T13:56:39.022Z,0.55
2023-04-02T13:59:09.074Z,0.70
2023-04-02T14:01:38.552Z,1.40
2023-04-02T14:04:08.303Z,1.00
2023-04-02T14:06:52.968Z,0.90
2023-04-02T14:09:28.683Z,0.95
2023-04-02T14:12:05.115Z,1.17
2023-04-02T14:14:52.974Z,0.90
2023-04-02T14:17:30.862Z,0.95
2023-04-02T14:20:18.381Z,1.13
2023-04-02T14:23:03.064Z,0.98
2023-04-02T14:25:37.491Z,1.00
2023-04-02T14:28:12.576Z,1.15
2023-04-02T14:30:53.769Z,1.77
2023-04-02T14:33:33.966Z,1.83
2023-04-02T14:36:13.997Z,1.02
2023-04-02T14:38:52.902Z,0.93
2023-04-02T14:41:26.656Z,1.00
2023-04-02T14:43:59.340Z,0.85
2023-04-02T14:46:31.713Z,0.63
2023-04-02T14:49:04.560Z,0.73
2023-04-02T14:51:38.250Z,0.95
2023-04-02T14:54:12.721Z,0.95
2023-04-02T14:56:48.284Z,0.90
2023-04-02T14:59:29.960Z,1.10
2023-04-02T15:02:03.638Z,1.00
2023-04-02T15:04:37.059Z,1.15
2023-04-02T15:07:15.547Z,0.52
2023-04-02T15:09:48.723Z,0.88
2023-04-02T15:12:24.609Z,0.65
2023-04-02T15:14:56.997Z,0.90
2023-04-02T15:17:26.674Z,0.82
2023-04-02T15:20:03.496Z,1.00
2023-04-02T15:22:41.948Z,1.10
2023-04-02T15:25:21.022Z,0.93
2023-04-02T15:28:19.401Z,0.90
2023-04-02T15:30:54.107Z,1.13
2023-04-02T15:33:43.372Z,1.17
2023-04-02T15:36:30.352Z,0.70
2023-04-02T15:39:05.297Z,0.93
2023-04-02T15:41:40.000Z,0.50
2023-04-02T15:44:11.765Z,0.90
2023-04-02T15:46:50.456Z,0.77
2023-04-02T15:49:40.807Z,1.35
2023-04-02T15:52:14.136Z,1.42
2023-04-02T15:54:54.934Z,0.82
2023-04-02T15:57:53.579Z,0.65
2023-04-02T16:00:26.660Z,1.10
2023-04-02T16:03:22.471Z,0.55
2023-04-02T16:06:01.719Z,0.68
2023-04-02T16:08:45.739Z,1.38
2023-04-02T16:11:15.884Z,1.20
2023-04-02T16:13:44.748Z,1.10
2023-04-02T16:16:17.936Z,0.77
2023-04-02T16:18:54.050Z,1.17
2023-04-02T16:21:26.142Z,1.50
2023-04-02T16:23:54.572Z,0.98
2023-04-02T16:26:41.801Z,1.77
2023-04-02T16:29:44.022Z,0.65
2023-04-02T16:32:40.146Z,1.02
2023-04-02T16:37:53.591Z,0.55
2023-04-02T16:40:32.669Z,1.23
2023-04-02T16:43:11.575Z,1.13
2023-04-02T16:45:46.924Z,1.08
2023-04-02T16:48:24.696Z,0.90
2023-04-02T16:51:02.685Z,0.88
2023-04-02T16:53:58.471Z,1.58
2023-04-02T16:56:38.777Z,0.90
2023-04-02T16:59:16.845Z,0.82
2023-04-02T17:01:53.871Z,1.13
2023-04-02T17:04:46.349Z,0.65
2023-04-02T17:07:26.853Z,0.73
2023-04-02T17:10:08.546Z,1.15
2023-04-02T17:12:45.076Z,1.50
2023-04-02T17:15:27.899Z,1.00
2023-04-02T17:17:59.596Z,0.80
2023-04-02T17:20:28.659Z,0.95
2023-04-02T17:22:57.669Z,1.20
2023-04-02T17:25:31.278Z,0.95
2023-04-02T17:27:59.679Z,0.93
2023-04-02T17:30:38.555Z,0.98
2023-04-02T17:33:12.542Z,0.73
2023-04-02T17:35:55.226Z,1.25
2023-04-02T17:38:32.622Z,1.08
2023-04-02T17:41:09.149Z,1.15
2023-04-02T17:43:48.702Z,1.15
2023-04-02T17:46:26.304Z,1.00
2023-04-02T17:49:01.808Z,1.38
2023-04-02T17:54:17.526Z,0.60
2023-04-02T17:57:05.883Z,1.30
2023-04-02T17:59:58.819Z,1.23
2023-04-02T18:02:44.112Z,1.55
2023-04-02T18:05:20.814Z,0.93
2023-04-02T18:07:57.098Z,1.25
2023-04-02T18:10:31.188Z,1.27
2023-04-02T18:13:07.303Z,1.15
2023-04-02T18:15:55.835Z,0.93
2023-04-02T18:19:05.997Z,1.02
2023-04-02T18:21:40.940Z,1.05
2023-04-02T18:24:22.594Z,1.10
2023-04-02T18:27:02.113Z,1.00
2023-04-02T18:29:41.681Z,1.30
2023-04-02T18:32:29.602Z,1.08
2023-04-02T18:35:05.087Z,1.15
2023-04-02T18:37:44.731Z,0.93
2023-04-02T18:40:42.134Z,1.00
2023-04-02T18:43:25.854Z,1.33
2023-04-02T18:46:01.359Z,1.20
2023-04-02T18:48:40.879Z,1.00
2023-04-02T18:51:14.896Z,1.67
2023-04-02T18:53:44.419Z,1.65
2023-04-02T18:56:17.156Z,1.05
2023-04-02T18:58:56.940Z,1.75
2023-04-02T19:01:31.571Z,1.95
2023-04-02T19:04:05.090Z,2.27
2023-04-02T19:06:38.289Z,1.30
2023-04-02T19:09:15.158Z,1.50
2023-04-02T19:11:43.605Z,1.83
2023-04-02T19:14:14.954Z,1.58
2023-04-02T19:17:03.522Z,1.50
2023-04-02T19:19:38.267Z,0.95
2023-04-02T19:22:16.817Z,1.30
2023-04-02T19:25:00.708Z,1.15
2023-04-02T19:27:38.173Z,0.70
2023-04-02T19:30:30.571Z,1.30
2023-04-02T19:33:08.470Z,0.93
2023-04-02T19:35:44.877Z,0.55
2023-04-02T19:38:25.090Z,0.77
2023-04-02T19:40:59.508Z,0.63
2023-04-02T19:43:28.335Z,0.73
2023-04-02T19:45:56.683Z,0.88
2023-04-02T19:48:28.590Z,0.35
2023-04-02T19:50:57.297Z,0.40
2023-04-02T19:53:25.587Z,0.60
2023-04-02T19:55:55.365Z,0.52
2023-04-02T19:58:28.540Z,0.75
2023-04-02T20:00:57.800Z,0.70
2023-04-02T20:03:27.941Z,0.50
2023-04-02T20:05:56.944Z,0.35
2023-04-02T20:08:25.170Z,0.73
2023-04-02T20:10:54.144Z,0.43
2023-04-02T20:13:22.351Z,0.93
2023-04-02T20:15:51.411Z,0.70
2023-04-02T20:18:21.052Z,0.55
2023-04-02T20:20:50.791Z,0.47
2023-04-02T20:23:20.174Z,0.73
2023-04-02T20:25:53.053Z,0.75
2023-04-02T20:28:21.812Z,0.90
2023-04-02T20:30:51.064Z,0.70
2023-04-02T20:33:21.125Z,0.45
2023-04-02T20:35:52.372Z,0.65
2023-04-02T20:38:20.887Z,0.82
2023-04-02T20:40:52.945Z,0.68
2023-04-02T20:43:21.770Z,1.75
2023-04-02T20:45:56.751Z,0.52
2023-04-02T20:48:27.431Z,0.50
2023-04-02T20:50:57.728Z,0.55
2023-04-02T20:53:26.714Z,0.40
2023-04-02T20:56:02.434Z,0.60
2023-04-02T20:58:31.100Z,0.63
2023-04-02T21:01:08.075Z,0.40
2023-04-02T21:03:36.735Z,0.60
2023-04-02T21:06:08.922Z,0.40
2023-04-02T21:08:37.973Z,0.60
2023-04-02T21:11:07.355Z,0.60
2023-04-02T21:13:37.306Z,0.88
2023-04-02T21:16:12.617Z,0.70
2023-04-02T21:18:41.052Z,0.57
2023-04-02T21:21:13.872Z,0.57
2023-04-02T21:23:43.503Z,0.57
2023-04-02T21:26:14.579Z,0.60
2023-04-02T21:28:43.603Z,0.70
2023-04-02T21:31:13.722Z,0.80
2023-04-02T21:33:44.307Z,0.40
2023-04-02T21:36:15.750Z,0.38
2023-04-02T21:38:44.877Z,1.00
2023-04-02T21:41:15.147Z,0.43
2023-04-02T21:43:43.450Z,0.50
2023-04-02T21:46:11.679Z,0.50
2023-04-02T21:48:40.735Z,1.15
2023-04-02T21:51:14.696Z,0.38
2023-04-02T21:53:44.144Z,0.50
2023-04-02T21:56:15.027Z,1.35
2023-04-02T21:58:44.441Z,1.00
2023-04-02T22:01:26.137Z,0.90
2023-04-02T22:03:56.543Z,0.60
2023-04-02T22:06:27.883Z,0.50
2023-04-02T22:08:58.473Z,0.80
2023-04-02T22:11:29.281Z,0.30
2023-04-02T22:13:57.783Z,0.60
2023-04-02T22:16:27.435Z,0.60
2023-04-02T22:18:58.299Z,0.63
2023-04-02T22:21:28.348Z,0.75
2023-04-02T22:23:56.965Z,0.55
2023-04-02T22:26:25.721Z,0.60
2023-04-02T22:28:53.915Z,0.32
2023-04-02T22:31:25.467Z,0.80
2023-04-02T22:33:55.391Z,0.65
2023-04-02T22:36:24.788Z,0.98
2023-04-02T22:38:54.938Z,0.75
2023-04-02T22:41:27.246Z,0.93
2023-04-02T22:43:58.021Z,0.88
2023-04-02T22:46:27.424Z,0.93
2023-04-02T22:48:56.269Z,0.63
2023-04-02T22:51:26.031Z,0.63
2023-04-02T22:53:57.031Z,1.10
2023-04-02T22:56:31.777Z,0.98
2023-04-02T22:59:00.945Z,0.98
2023-04-02T23:01:31.472Z,0.50
2023-04-02T23:04:00.040Z,0.47
2023-04-02T23:06:28.375Z,0.40
2023-04-02T23:08:58.364Z,1.10
2023-04-02T23:11:28.674Z,0.95
2023-04-02T23:13:58.891Z,0.95
2023-04-02T23:16:29.854Z,0.50
2023-04-02T23:18:58.864Z,0.70
2023-04-02T23:21:27.984Z,0.70
2023-04-02T23:23:58.218Z,0.60
2023-04-02T23:26:29.345Z,0.65
2023-04-02T23:28:59.504Z,0.22
2023-04-02T23:31:27.861Z,0.77
2023-04-02T23:33:56.765Z,0.50
2023-04-02T23:36:26.688Z,0.65
2023-04-02T23:38:56.670Z,0.28
2023-04-02T23:41:27.761Z,0.65
2023-04-02T23:43:57.104Z,0.60
2023-04-02T23:46:25.926Z,1.27
2023-04-02T23:48:56.213Z,0.50
2023-04-02T23:51:25.075Z,0.63
2023-04-02T23:53:55.389Z,0.60
2023-04-02T23:56:25.970Z,1.27
2023-04-02T23:58:54.374Z,0.60
